Aviation Digital Data Service (ADDS)

Output produced by METARs form (1700 UTC 01 July 2016)
found at http://www.aviationweather.gov/adds/metars/
 
KMDT 011656Z 23008G15KT 10SM BKN037 BKN065 28/19 A2991 RMK AO2 SLP125 T02830194
KMDT 011556Z VRB04KT 10SM FEW034 BKN045 28/19 A2992 RMK AO2 SLP130 T02780189
KMDT 011524Z VRB06KT 10SM SCT029 BKN045 28/19 A2992 RMK AO2 T02780194
KMDT 011456Z VRB04KT 10SM BKN029 27/19 A2993 RMK AO2 SLP133 T02720194 58013
KMDT 011447Z VRB05KT 10SM BKN029 28/20 A2993 RMK AO2 T02780200
KMDT 011356Z 15006KT 10SM SCT120 SCT200 26/20 A2994 RMK AO2 SLP137 T02610200
KMDT 011256Z 12003KT 7SM OVC200 23/19 A2996 RMK AO2 SLP143 T02330189
KMDT 011218Z 13004KT 7SM SCT090 BKN200 22/18 A2997 RMK AO2 T02220178
KMDT 011203Z 12003KT 6SM HZ FEW003 22/18 A2997 RMK AO2 T02170178
KMDT 011156Z 10004KT 6SM HZ FEW090 OVC200 22/17 A2997 RMK AO2 SLP145 T02170172 10222 20189 56003
KMDT 011056Z 07003KT 8SM SCT090 BKN180 19/16 A2997 RMK AO2 SLP146 T01940161
KMDT 010956Z 06003KT 6SM HZ FEW055 BKN250 19/16 A2997 RMK AO2 SLP146 T01940161
KMDT 010856Z 00000KT 10SM FEW055 BKN240 19/16 A2997 RMK AO2 SLP148 T01940156 55006
KMDT 010756Z 05003KT 10SM FEW055 SCT250 19/16 A2997 RMK AO2 SLP148 T01940156
KMDT 010656Z 00000KT 10SM FEW055 BKN250 21/16 A2998 RMK AO2 SLP150 T02060161
KMDT 010556Z VRB03KT 10SM FEW085 BKN250 22/17 A2999 RMK AO2 SLP154 T02220167 10267 20194 58004
KMDT 010456Z 14004KT 10SM FEW085 BKN250 20/16 A3000 RMK AO2 SLP159 T02000156 402890178
KMDT 010356Z 12005KT 10SM BKN250 20/15 A3000 RMK AO2 SLP159 T02000150
KMDT 010256Z 11006KT 10SM SCT250 22/14 A3000 RMK AO2 SLP158 T02220139 50002
KMDT 010156Z COR VRB03KT 10SM FEW065 FEW250 23/16 A3001 RMK AO2 SLP160 T02330161
KMDT 010056Z COR 22005KT 10SM FEW065 SCT250 25/13 A3000 RMK AO2 SLP157 T02500133
KMDT 302356Z 19005KT 10SM SCT065 27/14 A3000 RMK AO2 SLP155 T02670139 10289 20267 55000
KMDT 302256Z 20005KT 10SM SCT065 28/13 A2998 RMK AO2 SLP152 T02780133
KMDT 302156Z 00000KT 10SM SCT050 29/13 A2998 RMK AO2 SLP152 T02890128
KMDT 302056Z 16006KT 10SM FEW065 SCT085 28/13 A3000 RMK AO2 SLP156 T02780133 56009
KMDT 301956Z 14007KT 10SM FEW065 SCT085 28/13 A3000 RMK AO2 SLP159 T02780133
KMDT 301856Z 16003KT 10SM SCT075 27/12 A3001 RMK AO2 SLP161 T02670117
KMDT 301756Z 15003KT 10SM SCT040 28/12 A3002 RMK AO2 SLP165 T02780122 10278 20206 56012
KMDT 301656Z 00000KT 10SM CLR 27/13 A3003 RMK AO2 SLP168 T02670128
KMDT 301556Z 00000KT 10SM SCT045 26/14 A3005 RMK AO2 SLP175 T02560144
KMDT 301456Z 00000KT 10SM SCT040 BKN200 26/15 A3006 RMK AO2 SLP178 T02560150 51004
KMDT 301356Z 23003KT 10SM SCT200 23/15 A3005 RMK AO2 SLP176 T02330150
KMDT 301256Z 27004KT 10SM FEW200 22/14 A3005 RMK AO2 SLP176 T02170144
KMDT 301216Z 30004KT 10SM FEW002 21/13 A3005 RMK AO2 T02060133
KMDT 301156Z 31007KT 10SM CLR 21/13 A3005 RMK AO2 SLP174 T02060133 10206 20178 51008
KMDT 301056Z 34004KT 10SM SCT035 19/13 A3004 RMK AO2 SLP170 T01890128
KMDT 300956Z 33005KT 10SM CLR 18/12 A3003 RMK AO2 SLP170 T01780122
KMDT 300856Z VRB04KT 10SM CLR 18/13 A3002 RMK AO2 SLP166 T01780128 51002
KMDT 300756Z 33006KT 10SM FEW080 19/13 A3002 RMK AO2 SLP164 T01890128
KMDT 300656Z 32009KT 10SM FEW080 19/13 A3003 RMK AO2 SLP167 T01890128
KMDT 300556Z 31008KT 10SM CLR 19/13 A3002 RMK AO2 SLP164 T01940128 10239 20189 53007